CMA CGM Columba — 2DBC9 — position and weather

sailwx.info

Track history (hours):
 
Tides and Currents Weather Stations Pressure Air Temp Water Temp Dewpoint Dewpoint Depression Visibility Wind Speed Wind Dir Waves Ship Positions

CMA CGM Columba

Last reported at 2014-Jul-28 07:25 UTC. Time now 2014-Jul-28 08:18 UTC.
Position N 37°24' E 005°08'.

Length 363 m; draft 16 m.

Type: Ship (hazmat cat A). MMSI: 235077448.

Date/timePositionNaut miles runAvg speedWind from/ knotsBaromVisibWave heightAir tempDewpointWater temp
2014-Jul-28 07:25N 37°24' E 005°08'1921.6
2014-Jul-28 06:33N 37°26' E 005°31'2221.7
2014-Jul-28 05:32N 37°29' E 005°59'13621.6
2014-Jul-27 23:14N 37°42' E 008°50'1420.8
2014-Jul-27 22:33N 37°42' E 009°08'2120.7
2014-Jul-27 21:33N 37°41' E 009°34'13420.6
2014-Jul-27 15:03N 37°02' E 012°16'1121.3
2014-Jul-27 14:33N 36°58' E 012°28'2120.7
2014-Jul-27 13:34N 36°51' E 012°52'2120.8
2014-Jul-27 12:34N 36°43' E 013°17'2121.1
2014-Jul-27 11:33N 36°36' E 013°41'2121.3
2014-Jul-27 10:33N 36°29' E 014°06'2221.6
2014-Jul-27 09:33N 36°21' E 014°31'2121.2
2014-Jul-27 08:33N 36°14' E 014°56'8721.8
2014-Jul-27 04:34N 35°49' E 016°39'  
2014-Jul-24 20:22N 29°50' E 032°34'0 0.0
2014-Jul-24 19:31N 29°50' E 032°34'  
Track history (hours):
 
Tides and Currents Weather Stations Pressure Air Temp Water Temp Dewpoint Dewpoint Depression Visibility Wind Speed Wind Dir Waves Ship Positions

CMA CGM Columba

Last reported at 2014-Jul-28 07:25 UTC. Time now 2014-Jul-28 08:18 UTC.
Position N 37°24' E 005°08'.

Length 363 m; draft 16 m.

Type: Ship (hazmat cat A). MMSI: 235077448.

Date/timePositionNaut miles runAvg speedWind from/ knotsBaromVisibWave heightAir tempDewpointWater temp
2014-Jul-28 07:25N 37°24' E 005°08'1921.6
2014-Jul-28 06:33N 37°26' E 005°31'2221.7
2014-Jul-28 05:32N 37°29' E 005°59'13621.6
2014-Jul-27 23:14N 37°42' E 008°50'1420.8
2014-Jul-27 22:33N 37°42' E 009°08'2120.7
2014-Jul-27 21:33N 37°41' E 009°34'13420.6
2014-Jul-27 15:03N 37°02' E 012°16'1121.3
2014-Jul-27 14:33N 36°58' E 012°28'2120.7
2014-Jul-27 13:34N 36°51' E 012°52'2120.8
2014-Jul-27 12:34N 36°43' E 013°17'2121.1
2014-Jul-27 11:33N 36°36' E 013°41'2121.3
2014-Jul-27 10:33N 36°29' E 014°06'2221.6
2014-Jul-27 09:33N 36°21' E 014°31'2121.2
2014-Jul-27 08:33N 36°14' E 014°56'8721.8
2014-Jul-27 04:34N 35°49' E 016°39'  
2014-Jul-24 20:22N 29°50' E 032°34'0 0.0
2014-Jul-24 19:31N 29°50' E 032°34'  

Dump ship's entire track history